KCCB/CCB METAR and TAF weather

Enter ICAO airport designator
Station Type Date Time Source
KCCB METAR 2021/08/04 18:15 UTC NOAA

KCCB 041815Z AUTO 27007KT 10SM CLR 31/07 A2994 RMK AO2


Station Type Date Time Source
KCCB Decoded METAR 2021/08/04 18:15 UTC NOAA

Station name not available
Aug 04, 2021 - 02:15 PM EDT / 2021.08.04 1815 UTC
Wind: from the W (270 degrees) at 8 MPH (7 KT):0
Visibility: 10 mile(s):0
Sky conditions: clear
Temperature: 87 F (31 C)
Dew Point: 44 F (7 C)
Relative Humidity: 22%
Pressure (altimeter): 29.94 in. Hg (1013 hPa)
ob: KCCB 041815Z AUTO 27007KT 10SM CLR 31/07 A2994 RMK AO2
cycle: 18

Station Type Date Time Source
KCCB TAF UTC NOAA

Error!

Example: see airport list